Time;durP1;ratioP1;P1;durP2;ratioP2;P2;SDS_P1;SDS_P2;PMS_P1;PMS_P2;Temp;Humidity;BMP_temperature;BMP_pressure;BME280_temperature;BME280_humidity;BME280_pressure;Samples;Min_cycle;Max_cycle;Signal;HPM_P1;HPM_P2
2021/09/28 00:00:28;;;;;;;6.88;4.85;;;15.40;93.20;;;;;;5030997;28;20090;-71
2021/09/28 00:02:54;;;;;;;7.90;5.25;;;15.40;93.40;;;;;;5034104;28;20029;-71
2021/09/28 00:05:20;;;;;;;7.60;4.35;;;15.40;93.40;;;;;;5030006;28;20092;-72
2021/09/28 00:07:45;;;;;;;6.65;3.80;;;15.40;93.30;;;;;;5025918;28;20037;-70
2021/09/28 00:10:11;;;;;;;6.90;3.38;;;15.30;93.10;;;;;;5031965;28;20707;-71
2021/09/28 00:12:37;;;;;;;5.00;3.53;;;15.20;93.20;;;;;;5026504;28;20138;-71
2021/09/28 00:15:06;;;;;;;5.60;4.13;;;15.10;93.50;;;;;;5027167;28;20490;-70
2021/09/28 00:17:31;;;;;;;12.27;5.55;;;15.10;94.50;;;;;;5031742;28;20041;-71
2021/09/28 00:19:57;;;;;;;6.32;4.32;;;15.00;95.00;;;;;;5030200;28;20028;-71
2021/09/28 00:22:23;;;;;;;6.68;4.40;;;14.90;95.20;;;;;;5028873;28;20108;-70
2021/09/28 00:24:48;;;;;;;6.22;4.22;;;14.90;95.20;;;;;;5032186;28;20033;-71
2021/09/28 00:27:14;;;;;;;8.80;5.03;;;15.10;94.60;;;;;;5025536;28;20119;-71
2021/09/28 00:29:39;;;;;;;9.52;5.60;;;15.10;94.90;;;;;;5040225;28;20139;-70
2021/09/28 00:32:06;;;;;;;8.23;5.00;;;15.10;95.40;;;;;;5040651;28;20108;-71
2021/09/28 00:34:33;;;;;;;9.70;6.13;;;15.20;94.90;;;;;;5039644;28;20017;-70
2021/09/28 00:36:58;;;;;;;8.82;5.72;;;15.20;94.70;;;;;;5026692;28;20026;-70
2021/09/28 00:39:24;;;;;;;12.80;5.60;;;15.30;94.40;;;;;;5027574;28;20029;-70
2021/09/28 00:41:50;;;;;;;8.90;5.72;;;15.30;94.50;;;;;;5029929;28;20032;-71
2021/09/28 00:44:15;;;;;;;11.32;6.18;;;15.30;94.60;;;;;;5030599;28;20037;-71
2021/09/28 00:46:41;;;;;;;12.98;6.28;;;15.40;95.00;;;;;;5027322;28;20038;-71
2021/09/28 00:49:08;;;;;;;11.77;7.18;;;15.30;95.30;;;;;;5026291;28;23425;-71
2021/09/28 00:51:34;;;;;;;12.20;7.43;;;15.30;95.50;;;;;;5026956;28;20021;-71
2021/09/28 00:54:00;;;;;;;13.55;6.15;;;15.30;95.40;;;;;;5030485;28;20040;-71
2021/09/28 00:56:26;;;;;;;10.48;6.75;;;15.30;95.40;;;;;;5027665;28;20108;-71
2021/09/28 00:58:52;;;;;;;11.10;7.45;;;15.20;94.90;;;;;;5028796;28;20163;-71
2021/09/28 01:01:18;;;;;;;12.98;6.97;;;15.30;94.70;;;;;;5025743;28;20040;-70
2021/09/28 01:03:43;;;;;;;12.18;7.55;;;15.30;94.80;;;;;;5030746;28;20025;-70
2021/09/28 01:06:09;;;;;;;16.02;8.60;;;15.30;95.20;;;;;;5030766;28;20041;-70
2021/09/28 01:08:35;;;;;;;11.32;7.18;;;15.20;95.70;;;;;;5028709;28;20534;-70
2021/09/28 01:11:03;;;;;;;12.20;7.70;;;15.10;95.90;;;;;;5025691;28;20029;-70
2021/09/28 01:13:28;;;;;;;11.98;7.97;;;15.10;95.80;;;;;;5029885;28;22987;-70
2021/09/28 01:16:00;;;;;;;11.77;7.18;;;15.10;95.80;;;;;;5025623;28;20037;-70
2021/09/28 01:18:34;;;;;;;13.95;8.13;;;15.20;95.70;;;;;;5025782;28;20072;-70
2021/09/28 01:21:01;;;;;;;14.38;7.70;;;15.20;95.80;;;;;;5026208;28;20028;-69
2021/09/28 01:23:28;;;;;;;12.90;6.70;;;15.10;95.90;;;;;;5031609;28;20032;-70
2021/09/28 01:25:53;;;;;;;10.40;6.90;;;15.10;95.70;;;;;;5035956;28;20057;-70
2021/09/28 01:28:19;;;;;;;12.27;6.80;;;15.20;95.40;;;;;;5025727;28;20053;-70
2021/09/28 01:30:45;;;;;;;11.95;7.20;;;15.20;94.90;;;;;;5024442;28;20045;-70
2021/09/28 01:33:11;;;;;;;13.43;7.53;;;15.20;94.80;;;;;;5020998;28;21062;-70
2021/09/28 01:35:38;;;;;;;13.88;8.00;;;15.10;94.80;;;;;;5037946;28;20044;-69
2021/09/28 01:38:05;;;;;;;11.60;6.95;;;15.20;94.70;;;;;;5024770;28;20021;-69
2021/09/28 01:40:30;;;;;;;13.70;7.70;;;15.20;94.90;;;;;;5026493;28;20588;-69
2021/09/28 01:42:56;;;;;;;13.27;8.07;;;15.10;94.90;;;;;;5030894;28;20033;-70
2021/09/28 01:45:22;;;;;;;15.02;7.10;;;15.10;94.60;;;;;;5022000;28;20054;-69
2021/09/28 01:47:48;;;;;;;11.35;6.88;;;15.10;94.60;;;;;;5025032;28;20856;-69
2021/09/28 01:50:13;;;;;;;11.57;6.43;;;15.20;94.80;;;;;;5023695;28;20029;-70
2021/09/28 01:52:39;;;;;;;12.23;6.95;;;15.20;94.40;;;;;;5031550;28;20572;-71
2021/09/28 01:55:06;;;;;;;11.60;7.18;;;15.30;94.40;;;;;;5027754;28;20037;-70
2021/09/28 01:57:33;;;;;;;14.50;7.18;;;15.30;94.50;;;;;;5024769;28;20030;-69
2021/09/28 02:00:00;;;;;;;11.90;6.88;;;15.30;94.60;;;;;;5028436;28;20028;-70
2021/09/28 02:02:25;;;;;;;11.85;7.57;;;15.30;94.40;;;;;;5026365;28;20501;-70
2021/09/28 02:04:51;;;;;;;13.73;7.53;;;15.20;94.90;;;;;;5026920;28;20041;-70
2021/09/28 02:07:17;;;;;;;11.07;7.05;;;15.10;95.40;;;;;;5031464;28;20034;-69
2021/09/28 02:09:43;;;;;;;10.38;7.30;;;15.10;95.60;;;;;;5024804;28;20501;-69
2021/09/28 02:12:09;;;;;;;11.30;7.10;;;15.10;95.20;;;;;;5027894;28;20021;-69
2021/09/28 02:14:35;;;;;;;13.15;7.30;;;15.10;94.90;;;;;;5029153;28;20486;-70
2021/09/28 02:17:00;;;;;;;10.52;7.45;;;15.10;94.90;;;;;;5028429;28;20564;-68
2021/09/28 02:19:26;;;;;;;12.82;7.63;;;15.00;95.30;;;;;;5029965;28;20121;-69
2021/09/28 02:21:52;;;;;;;12.40;8.07;;;15.00;95.80;;;;;;5028678;28;20482;-69
2021/09/28 02:24:17;;;;;;;13.38;6.85;;;14.90;95.90;;;;;;5035326;28;20114;-69
2021/09/28 02:26:44;;;;;;;15.70;8.18;;;15.00;96.10;;;;;;5030684;28;20029;-69
2021/09/28 02:29:11;;;;;;;14.27;8.38;;;15.00;96.10;;;;;;5030920;28;20104;-69
2021/09/28 02:31:38;;;;;;;13.73;8.57;;;15.00;95.80;;;;;;5027978;28;20443;-69
2021/09/28 02:34:06;;;;;;;14.60;8.52;;;15.00;95.80;;;;;;5028779;28;20513;-69
2021/09/28 02:36:36;;;;;;;14.52;8.27;;;15.00;95.90;;;;;;5029362;28;20057;-70
2021/09/28 02:39:05;;;;;;;13.32;8.48;;;14.90;96.10;;;;;;5028235;28;20040;-70
2021/09/28 02:41:31;;;;;;;14.52;8.45;;;14.90;96.10;;;;;;5024471;28;20025;-70
2021/09/28 02:43:57;;;;;;;15.35;8.77;;;14.90;96.00;;;;;;5026514;28;20087;-70
2021/09/28 02:46:26;;;;;;;14.35;8.23;;;14.90;96.10;;;;;;5030108;28;20030;-70
2021/09/28 02:48:54;;;;;;;12.85;7.20;;;14.90;95.50;;;;;;5025887;28;20032;-70
2021/09/28 02:51:20;;;;;;;;;;;14.80;94.60;;;;;;5027104;28;20022;-70
2021/09/28 02:53:45;;;;;;;14.90;8.07;;;14.80;94.80;;;;;;5026350;28;19909;-70
2021/09/28 02:56:11;;;;;;;13.48;8.00;;;14.70;95.40;;;;;;5034607;28;20433;-71
2021/09/28 02:58:36;;;;;;;12.23;7.53;;;14.70;95.40;;;;;;5027153;28;20021;-70
2021/09/28 03:01:03;;;;;;;13.18;7.78;;;14.70;95.80;;;;;;5021491;28;20029;-69
2021/09/28 03:03:28;;;;;;;15.23;8.13;;;14.70;95.80;;;;;;5024093;28;20772;-70
2021/09/28 03:05:54;;;;;;;13.93;7.70;;;14.80;96.00;;;;;;5023641;28;20025;-71
2021/09/28 03:08:19;;;;;;;14.50;8.82;;;14.80;96.30;;;;;;5033817;28;20075;-69
2021/09/28 03:10:45;;;;;;;11.63;8.00;;;14.90;96.40;;;;;;5025401;28;20103;-68
2021/09/28 03:13:12;;;;;;;13.00;8.57;;;15.00;96.30;;;;;;5025231;28;20121;-68
2021/09/28 03:15:38;;;;;;;16.08;7.53;;;15.00;96.20;;;;;;5026094;28;20037;-69
2021/09/28 03:18:04;;;;;;;13.00;7.15;;;15.00;96.50;;;;;;5018879;28;20056;-69
2021/09/28 03:20:29;;;;;;;10.48;6.65;;;15.00;96.30;;;;;;5025976;28;20029;-69
2021/09/28 03:22:55;;;;;;;10.40;6.53;;;15.00;96.30;;;;;;5027315;28;20087;-69
2021/09/28 03:25:21;;;;;;;10.18;5.70;;;15.00;96.30;;;;;;5028000;28;20043;-69
2021/09/28 03:27:46;;;;;;;6.07;3.53;;;15.10;96.00;;;;;;5028142;28;20051;-69
2021/09/28 03:30:12;;;;;;;5.82;3.20;;;15.00;95.30;;;;;;5022674;28;20029;-69
2021/09/28 03:32:38;;;;;;;5.03;3.05;;;15.00;94.90;;;;;;5027033;28;20029;-68
2021/09/28 03:35:11;;;;;;;2.08;1.60;;;14.90;94.90;;;;;;5024746;28;20036;-69
2021/09/28 03:37:39;;;;;;;1.65;1.55;;;15.00;93.70;;;;;;5039752;28;20036;-69
2021/09/28 03:40:07;;;;;;;2.78;1.40;;;15.00;94.00;;;;;;5026888;28;20025;-70
2021/09/28 03:42:33;;;;;;;1.33;1.02;;;14.90;93.60;;;;;;5030532;28;20099;-70
2021/09/28 03:44:58;;;;;;;1.52;1.30;;;15.00;93.30;;;;;;5025852;28;20131;-69
2021/09/28 03:47:24;;;;;;;3.33;1.48;;;15.00;93.50;;;;;;5028564;28;20029;-69
2021/09/28 03:49:50;;;;;;;1.25;1.15;;;14.90;92.90;;;;;;5028462;28;20033;-69
2021/09/28 03:52:15;;;;;;;7.15;1.80;;;15.00;93.00;;;;;;5034245;28;20310;-70
2021/09/28 03:54:41;;;;;;;0.88;0.88;;;14.90;92.80;;;;;;5025426;28;20413;-70
2021/09/28 03:57:07;;;;;;;3.13;0.90;;;14.90;92.80;;;;;;5032193;28;20029;-69
2021/09/28 03:59:33;;;;;;;1.15;1.05;;;14.90;92.50;;;;;;5031514;28;20043;-70
2021/09/28 04:01:58;;;;;;;0.80;0.80;;;14.80;92.60;;;;;;5025309;28;20405;-69
2021/09/28 04:04:24;;;;;;;3.08;1.73;;;14.80;92.40;;;;;;5026065;28;20041;-69
2021/09/28 04:06:49;;;;;;;0.80;0.80;;;14.70;92.40;;;;;;5028066;28;20044;-69
2021/09/28 04:09:15;;;;;;;0.80;0.80;;;14.70;92.40;;;;;;5025607;28;20025;-69
2021/09/28 04:11:41;;;;;;;1.38;1.27;;;14.70;92.50;;;;;;5025323;28;20021;-69
2021/09/28 04:14:09;;;;;;;0.50;0.50;;;14.70;92.50;;;;;;5030322;28;20021;-70
2021/09/28 04:16:36;;;;;;;0.70;0.70;;;14.70;92.40;;;;;;5040229;28;20044;-69
2021/09/28 04:19:02;;;;;;;0.90;0.60;;;14.70;92.60;;;;;;5030190;28;20366;-69
2021/09/28 04:21:28;;;;;;;0.60;0.60;;;14.70;92.70;;;;;;5028295;28;20030;-69
2021/09/28 04:23:53;;;;;;;0.40;0.40;;;14.70;92.80;;;;;;5027619;28;20052;-69
2021/09/28 04:26:19;;;;;;;0.60;0.60;;;14.70;92.00;;;;;;5034034;28;20378;-70
2021/09/28 04:28:45;;;;;;;1.17;0.28;;;14.50;91.40;;;;;;5032884;28;20086;-69
2021/09/28 04:31:14;;;;;;;0.90;0.35;;;14.50;91.60;;;;;;5027399;28;20104;-70
2021/09/28 04:33:40;;;;;;;0.40;0.40;;;14.50;91.70;;;;;;5023748;28;20037;-70
2021/09/28 04:36:05;;;;;;;0.35;0.35;;;14.50;91.60;;;;;;5032823;28;20467;-71
2021/09/28 04:38:31;;;;;;;0.38;0.30;;;14.40;91.50;;;;;;5030771;28;20044;-69
2021/09/28 04:40:58;;;;;;;2.95;0.45;;;14.40;91.50;;;;;;5023756;28;20132;-69
2021/09/28 04:43:24;;;;;;;2.40;0.52;;;14.40;91.70;;;;;;5028928;28;20021;-69
2021/09/28 04:45:49;;;;;;;0.35;0.35;;;14.40;91.50;;;;;;5023210;28;20059;-69
2021/09/28 04:48:15;;;;;;;0.70;0.30;;;14.30;91.60;;;;;;5029115;28;20025;-69
2021/09/28 04:50:41;;;;;;;0.28;0.28;;;14.20;91.50;;;;;;5016530;28;20025;-69
2021/09/28 04:53:06;;;;;;;0.45;0.45;;;14.10;91.70;;;;;;5017054;28;20061;-69
2021/09/28 04:55:32;;;;;;;0.40;0.40;;;14.00;92.10;;;;;;5021224;28;20033;-70
2021/09/28 04:57:57;;;;;;;0.30;0.30;;;14.00;92.10;;;;;;5018202;28;20037;-69
2021/09/28 05:00:23;;;;;;;0.38;0.38;;;14.00;92.70;;;;;;5015886;28;20585;-69
2021/09/28 05:02:49;;;;;;;2.17;0.40;;;13.90;92.60;;;;;;5014941;28;20115;-69
2021/09/28 05:05:15;;;;;;;2.13;0.45;;;13.90;92.80;;;;;;5018079;28;20028;-70
2021/09/28 05:07:41;;;;;;;0.30;0.30;;;13.90;93.00;;;;;;5018207;28;20033;-69
2021/09/28 05:10:07;;;;;;;0.52;0.47;;;13.90;93.10;;;;;;5019250;28;20030;-69
2021/09/28 05:12:32;;;;;;;0.40;0.40;;;13.80;93.20;;;;;;5018752;28;20072;-69
2021/09/28 05:14:58;;;;;;;0.63;0.50;;;13.80;93.10;;;;;;5019611;28;20732;-69
2021/09/28 05:17:25;;;;;;;0.65;0.65;;;13.80;93.00;;;;;;5018527;28;20033;-69
2021/09/28 05:19:50;;;;;;;0.70;0.70;;;13.80;93.00;;;;;;5019338;28;20037;-69
2021/09/28 05:22:16;;;;;;;1.00;0.70;;;13.80;93.10;;;;;;5017960;28;20049;-71
2021/09/28 05:24:42;;;;;;;0.50;0.50;;;13.80;92.70;;;;;;5032047;28;20036;-69
2021/09/28 05:27:07;;;;;;;2.28;0.80;;;13.70;92.60;;;;;;5018008;28;20501;-69
2021/09/28 05:29:34;;;;;;;0.80;0.63;;;13.70;92.60;;;;;;5020464;28;20056;-69
2021/09/28 05:32:00;;;;;;;1.75;0.75;;;13.70;92.70;;;;;;5019579;28;20038;-70
2021/09/28 05:34:26;;;;;;;1.13;1.02;;;13.70;92.80;;;;;;5026375;28;20056;-69
2021/09/28 05:36:52;;;;;;;1.00;0.98;;;13.70;92.40;;;;;;5017860;28;20076;-70
2021/09/28 05:39:19;;;;;;;0.60;0.60;;;13.80;92.40;;;;;;5023216;28;20426;-69
2021/09/28 05:41:45;;;;;;;0.93;0.80;;;13.70;92.40;;;;;;5025806;28;20063;-68
2021/09/28 05:44:11;;;;;;;1.23;0.80;;;13.70;92.40;;;;;;5027865;28;20617;-69
2021/09/28 05:46:37;;;;;;;1.50;0.82;;;13.70;92.30;;;;;;5023147;28;20044;-69
2021/09/28 05:49:03;;;;;;;1.05;0.63;;;13.60;92.20;;;;;;5027091;28;20489;-71
2021/09/28 05:51:32;;;;;;;0.80;0.80;;;13.70;92.70;;;;;;5029492;28;20026;-69
2021/09/28 05:54:00;;;;;;;1.05;0.88;;;13.70;92.80;;;;;;5028434;28;20036;-69
2021/09/28 05:56:25;;;;;;;0.90;0.82;;;13.70;93.00;;;;;;5036342;28;20029;-69
2021/09/28 05:58:52;;;;;;;2.20;0.95;;;13.80;93.00;;;;;;5030133;28;20120;-70
2021/09/28 06:01:17;;;;;;;0.75;0.75;;;13.70;92.90;;;;;;5024225;28;20057;-69
2021/09/28 06:03:43;;;;;;;2.45;0.85;;;13.80;93.20;;;;;;5028961;28;20057;-69
2021/09/28 06:06:09;;;;;;;2.95;1.10;;;13.70;93.00;;;;;;5027204;28;20077;-69
2021/09/28 06:08:34;;;;;;;1.85;1.00;;;13.70;92.90;;;;;;5029564;28;20071;-69
2021/09/28 06:11:01;;;;;;;2.22;1.00;;;13.60;92.90;;;;;;5024591;28;20036;-70
2021/09/28 06:13:27;;;;;;;2.35;0.93;;;13.60;92.50;;;;;;5025327;28;20034;-69
2021/09/28 06:15:53;;;;;;;1.20;1.20;;;13.60;92.40;;;;;;5027501;28;20088;-69
2021/09/28 06:18:20;;;;;;;0.80;0.80;;;13.60;92.30;;;;;;5035629;28;20057;-69
2021/09/28 06:20:46;;;;;;;3.67;1.30;;;13.60;92.40;;;;;;5029602;28;20043;-69
2021/09/28 06:23:11;;;;;;;1.08;1.00;;;13.50;92.60;;;;;;5028650;28;20456;-69
2021/09/28 06:25:37;;;;;;;2.17;1.27;;;13.60;92.80;;;;;;5028178;28;20025;-69
2021/09/28 06:28:03;;;;;;;2.75;1.02;;;13.50;92.60;;;;;;5022736;28;20025;-69
2021/09/28 06:30:29;;;;;;;0.93;0.90;;;13.50;93.10;;;;;;5028153;28;20021;-69
2021/09/28 06:32:55;;;;;;;1.30;1.30;;;13.50;92.50;;;;;;5027958;28;20029;-69
2021/09/28 06:35:20;;;;;;;1.45;1.10;;;13.50;92.60;;;;;;5026790;28;20040;-69
2021/09/28 06:37:46;;;;;;;1.33;1.23;;;13.40;92.60;;;;;;5023147;28;20457;-69
2021/09/28 06:40:12;;;;;;;1.20;1.20;;;13.50;92.70;;;;;;5024850;28;20026;-70
2021/09/28 06:42:38;;;;;;;2.45;1.40;;;13.50;92.90;;;;;;5031150;28;20033;-69
2021/09/28 06:45:04;;;;;;;2.05;1.48;;;13.50;92.90;;;;;;5033572;28;20041;-69
2021/09/28 06:47:29;;;;;;;2.92;1.40;;;13.50;92.80;;;;;;5019233;28;20026;-69
2021/09/28 06:49:55;;;;;;;2.80;1.23;;;13.50;92.70;;;;;;5021830;28;20115;-69
2021/09/28 06:52:21;;;;;;;1.98;1.30;;;13.50;92.80;;;;;;5021543;28;20026;-69
2021/09/28 06:54:46;;;;;;;1.90;1.30;;;13.50;93.10;;;;;;5021292;28;20455;-68
2021/09/28 06:57:12;;;;;;;2.85;1.73;;;13.50;93.30;;;;;;5026983;28;20032;-68
2021/09/28 06:59:37;;;;;;;2.88;1.40;;;13.50;93.30;;;;;;5024892;28;20101;-68
2021/09/28 07:02:03;;;;;;;1.80;1.45;;;13.50;93.10;;;;;;5030360;28;20056;-69
2021/09/28 07:04:29;;;;;;;2.25;1.60;;;13.60;93.20;;;;;;5026176;28;20091;-69
2021/09/28 07:06:55;;;;;;;1.50;1.40;;;13.60;93.00;;;;;;5031369;28;20029;-69
2021/09/28 07:09:21;;;;;;;1.88;1.63;;;13.60;93.20;;;;;;5032145;28;20391;-69
2021/09/28 07:11:46;;;;;;;2.53;1.83;;;13.60;93.20;;;;;;5039589;28;20164;-69
2021/09/28 07:14:12;;;;;;;1.83;1.48;;;13.70;93.50;;;;;;5028085;28;20025;-69
2021/09/28 07:16:38;;;;;;;2.53;1.77;;;13.70;93.60;;;;;;5032398;28;20036;-69
2021/09/28 07:19:04;;;;;;;2.28;1.42;;;13.70;93.80;;;;;;5030203;28;20029;-69
2021/09/28 07:21:29;;;;;;;2.42;1.60;;;13.80;93.20;;;;;;5030827;28;20497;-69
2021/09/28 07:23:55;;;;;;;1.80;1.70;;;13.80;93.00;;;;;;5034675;28;20087;-69
2021/09/28 07:26:20;;;;;;;2.93;2.00;;;13.80;92.70;;;;;;5026347;28;20029;-69
2021/09/28 07:28:46;;;;;;;3.95;1.70;;;13.80;92.50;;;;;;5026902;28;20040;-70
2021/09/28 07:31:12;;;;;;;1.92;1.70;;;13.80;93.00;;;;;;5028713;28;20037;-69
2021/09/28 07:33:38;;;;;;;2.65;1.92;;;13.70;91.90;;;;;;5031463;28;20034;-70
2021/09/28 07:36:06;;;;;;;4.28;2.10;;;13.80;92.30;;;;;;5037399;28;20032;-69
2021/09/28 07:38:32;;;;;;;3.33;2.00;;;13.80;92.50;;;;;;5029921;28;20064;-69
2021/09/28 07:40:58;;;;;;;2.03;1.83;;;13.80;92.20;;;;;;5032599;28;20034;-69
2021/09/28 07:43:24;;;;;;;3.67;2.40;;;13.90;92.40;;;;;;5023978;28;20060;-70
2021/09/28 07:45:50;;;;;;;3.30;2.35;;;13.90;92.10;;;;;;5028943;28;20049;-69
2021/09/28 07:48:16;;;;;;;2.40;2.20;;;13.90;92.30;;;;;;5030322;28;20036;-69
2021/09/28 07:50:41;;;;;;;3.10;2.40;;;14.00;92.10;;;;;;5026058;28;20521;-70
2021/09/28 07:53:07;;;;;;;6.10;2.28;;;14.00;92.20;;;;;;5028616;28;20418;-69
2021/09/28 07:55:34;;;;;;;2.72;2.53;;;14.00;91.90;;;;;;5040714;28;20029;-69
2021/09/28 07:58:00;;;;;;;3.28;2.42;;;14.00;92.50;;;;;;5029047;28;20030;-69
2021/09/28 08:00:26;;;;;;;5.95;2.53;;;14.10;92.20;;;;;;5028301;28;20648;-69
2021/09/28 08:02:52;;;;;;;2.53;2.20;;;14.10;92.00;;;;;;5030166;28;20031;-69
2021/09/28 08:05:17;;;;;;;2.70;2.50;;;14.10;91.50;;;;;;5026855;28;20508;-69
2021/09/28 08:07:43;;;;;;;4.80;2.65;;;14.10;91.70;;;;;;5031707;28;20036;-69
2021/09/28 08:10:10;;;;;;;5.10;2.60;;;14.10;91.60;;;;;;5031544;28;20021;-69
2021/09/28 08:12:36;;;;;;;3.53;2.73;;;14.10;92.00;;;;;;5030484;28;20029;-69
2021/09/28 08:15:04;;;;;;;3.10;2.65;;;14.10;91.40;;;;;;5029453;28;20290;-70
2021/09/28 08:17:29;;;;;;;8.73;3.20;;;14.20;91.30;;;;;;5034943;28;20123;-69
2021/09/28 08:19:55;;;;;;;3.00;2.72;;;14.20;91.10;;;;;;5028492;28;20108;-69
2021/09/28 08:22:21;;;;;;;4.68;2.92;;;14.30;91.50;;;;;;5035144;28;20102;-69
2021/09/28 08:24:50;;;;;;;3.17;2.63;;;14.40;91.60;;;;;;5028019;28;20132;-69
2021/09/28 08:30:05;;;;;;;2.97;2.58;;;14.40;89.00;;;;;;5020091;28;20044;-69
2021/09/28 08:32:30;;;;;;;6.07;2.83;;;14.40;90.20;;;;;;5023790;28;20040;-69
2021/09/28 08:34:58;;;;;;;4.32;3.03;;;14.50;90.50;;;;;;5021712;28;20029;-69
2021/09/28 08:37:26;;;;;;;4.55;2.53;;;14.50;90.10;;;;;;5028903;28;20112;-69
2021/09/28 08:39:52;;;;;;;;;;;14.50;89.20;;;;;;5031094;28;20018;-69
2021/09/28 08:42:17;;;;;;;4.97;2.30;;;14.60;89.30;;;;;;5029866;28;19928;-69
2021/09/28 08:44:43;;;;;;;6.97;2.53;;;14.60;89.10;;;;;;5035551;28;20486;-69
2021/09/28 08:47:09;;;;;;;4.25;2.70;;;14.70;90.00;;;;;;5030615;28;20115;-69
2021/09/28 08:49:35;;;;;;;2.33;1.92;;;14.70;89.40;;;;;;5028960;28;20406;-69
2021/09/28 08:52:03;;;;;;;3.13;2.10;;;14.70;88.80;;;;;;5031514;28;21223;-69
2021/09/28 08:54:29;;;;;;;6.35;2.80;;;14.60;87.10;;;;;;5030316;28;20122;-69
2021/09/28 08:56:55;;;;;;;5.57;2.30;;;14.70;89.20;;;;;;5031457;28;20483;-69
2021/09/28 08:59:21;;;;;;;4.32;2.28;;;14.60;87.70;;;;;;5030392;28;20025;-69
2021/09/28 09:01:56;;;;;;;3.58;1.67;;;14.60;87.60;;;;;;5028364;28;20160;-69
2021/09/28 09:04:24;;;;;;;3.47;2.47;;;14.60;88.40;;;;;;5029326;28;20152;-69
2021/09/28 09:06:49;;;;;;;4.30;2.40;;;14.70;87.60;;;;;;5028312;28;20096;-70
2021/09/28 09:09:16;;;;;;;2.78;2.03;;;14.60;87.60;;;;;;5031393;28;20032;-69
2021/09/28 09:11:47;;;;;;;3.60;2.15;;;14.60;87.50;;;;;;5037916;28;20080;-68
2021/09/28 09:14:21;;;;;;;4.93;2.30;;;14.60;87.40;;;;;;5028114;28;20056;-69
2021/09/28 09:16:49;;;;;;;2.30;2.10;;;14.60;86.60;;;;;;5033102;28;20036;-69
2021/09/28 09:19:17;;;;;;;3.40;2.10;;;14.60;86.50;;;;;;5022370;28;20037;-69
2021/09/28 09:22:02;;;;;;;1.85;1.75;;;14.50;85.80;;;;;;5028580;28;20050;-69
2021/09/28 09:24:57;;;;;;;3.92;2.20;;;14.60;85.90;;;;;;5042555;28;20033;-70
2021/09/28 09:27:31;;;;;;;2.38;2.05;;;14.70;85.80;;;;;;5010267;28;21051;-69
2021/09/28 09:30:15;;;;;;;2.30;2.10;;;14.70;85.10;;;;;;5028192;28;20025;-69
2021/09/28 09:32:51;;;;;;;2.78;2.08;;;14.90;84.70;;;;;;5034041;28;20033;-70
2021/09/28 09:35:27;;;;;;;2.42;1.83;;;15.00;84.10;;;;;;5032152;28;20109;-69
2021/09/28 09:38:11;;;;;;;2.33;2.13;;;15.10;82.90;;;;;;5022317;28;20033;-70
2021/09/28 09:40:48;;;;;;;2.42;1.85;;;15.20;83.80;;;;;;5027147;28;20075;-69
2021/09/28 09:43:17;;;;;;;3.60;2.28;;;15.20;82.60;;;;;;5028958;28;20762;-69
2021/09/28 09:45:43;;;;;;;2.28;1.90;;;15.20;81.60;;;;;;5029163;28;20490;-70
2021/09/28 09:48:32;;;;;;;4.43;1.98;;;15.30;82.10;;;;;;5024954;28;20855;-69
2021/09/28 09:51:07;;;;;;;2.63;2.28;;;15.30;81.30;;;;;;5032281;28;20159;-69
2021/09/28 09:53:49;;;;;;;3.33;2.65;;;15.40;83.10;;;;;;5026221;28;20029;-70
2021/09/28 09:56:15;;;;;;;8.05;2.53;;;15.40;84.80;;;;;;5032481;28;20156;-69
2021/09/28 09:58:41;;;;;;;6.95;2.13;;;15.30;83.20;;;;;;5030063;28;20175;-69
2021/09/28 10:01:06;;;;;;;5.60;2.58;;;15.40;83.80;;;;;;5024625;28;20045;-70
2021/09/28 10:03:32;;;;;;;4.72;2.33;;;15.40;84.30;;;;;;5028535;28;20032;-69
2021/09/28 10:05:59;;;;;;;3.85;2.47;;;15.50;84.90;;;;;;5022788;28;20825;-69
2021/09/28 10:08:25;;;;;;;2.83;2.60;;;15.50;84.80;;;;;;5025645;28;20029;-69
2021/09/28 10:10:57;;;;;;;3.13;2.40;;;15.40;83.80;;;;;;5027860;28;20112;-68
2021/09/28 10:13:48;;;;;;;2.78;2.33;;;15.40;82.80;;;;;;5026116;28;20028;-69
2021/09/28 10:16:28;;;;;;;2.45;2.25;;;15.40;84.80;;;;;;5020841;28;20556;-68
2021/09/28 10:18:54;;;;;;;3.47;2.40;;;15.40;84.50;;;;;;5033446;28;20133;-69
2021/09/28 10:21:39;;;;;;;4.35;2.88;;;15.50;83.10;;;;;;5025606;28;20109;-68
2021/09/28 10:24:30;;;;;;;3.97;3.00;;;15.40;83.10;;;;;;5028284;28;20370;-68
2021/09/28 10:26:56;;;;;;;6.03;2.80;;;15.40;82.70;;;;;;5027517;28;20108;-69
2021/09/28 10:29:37;;;;;;;3.92;2.40;;;15.50;82.80;;;;;;5034910;28;20493;-68
2021/09/28 10:32:26;;;;;;;6.00;2.58;;;15.50;81.80;;;;;;5027924;28;20045;-69
2021/09/28 10:35:09;;;;;;;2.88;2.17;;;15.50;81.40;;;;;;5029228;28;20044;-69
2021/09/28 10:37:50;;;;;;;1.77;1.60;;;15.50;78.90;;;;;;5035432;28;20470;-69
2021/09/28 10:40:21;;;;;;;2.42;2.03;;;15.50;79.80;;;;;;5032192;28;20022;-69
2021/09/28 10:42:50;;;;;;;5.38;2.47;;;15.70;79.80;;;;;;5034660;28;20652;-69
2021/09/28 10:45:21;;;;;;;2.97;2.10;;;15.70;80.00;;;;;;5033280;28;20056;-69
2021/09/28 10:47:50;;;;;;;3.20;2.90;;;15.70;78.60;;;;;;5037971;28;20397;-69
2021/09/28 10:50:31;;;;;;;4.10;2.33;;;15.70;78.90;;;;;;5031381;28;20025;-69
2021/09/28 10:52:59;;;;;;;3.42;2.33;;;15.80;78.50;;;;;;5030477;28;20079;-68
2021/09/28 10:55:28;;;;;;;3.30;2.17;;;15.90;78.20;;;;;;5027099;28;20117;-69
2021/09/28 10:57:58;;;;;;;5.75;2.92;;;16.00;77.20;;;;;;5032038;28;20043;-69
2021/09/28 11:00:49;;;;;;;3.03;2.22;;;16.10;83.30;;;;;;5028050;28;20049;-69
2021/09/28 11:03:16;;;;;;;2.90;2.60;;;16.40;80.60;;;;;;5025513;28;20053;-69
2021/09/28 11:05:43;;;;;;;3.22;2.92;;;16.40;78.60;;;;;;5030775;28;20030;-69
2021/09/28 11:08:10;;;;;;;4.57;2.35;;;16.40;79.10;;;;;;5028531;28;20084;-69
2021/09/28 11:10:37;;;;;;;2.90;2.05;;;16.30;79.20;;;;;;5033314;28;20466;-69
2021/09/28 11:13:10;;;;;;;3.22;2.22;;;16.20;80.80;;;;;;5029288;28;20133;-69
2021/09/28 11:15:36;;;;;;;3.92;2.45;;;16.10;79.60;;;;;;5029807;28;20016;-69
2021/09/28 11:18:11;;;;;;;3.60;2.53;;;16.10;81.10;;;;;;5025573;28;20036;-68
2021/09/28 11:20:39;;;;;;;4.07;2.45;;;16.10;79.80;;;;;;5022273;28;20034;-70
2021/09/28 11:23:08;;;;;;;2.03;1.90;;;16.00;78.10;;;;;;5033263;28;20044;-70
2021/09/28 11:25:36;;;;;;;5.18;3.00;;;16.00;78.80;;;;;;5030238;28;20131;-69
2021/09/28 11:28:16;;;;;;;3.67;2.30;;;16.00;78.60;;;;;;5027816;28;20359;-68
2021/09/28 11:30:56;;;;;;;4.03;2.47;;;16.10;79.20;;;;;;5033279;28;20498;-69
2021/09/28 11:33:23;;;;;;;2.38;2.20;;;16.10;78.60;;;;;;5024717;28;20037;-69
2021/09/28 11:36:01;;;;;;;2.30;2.10;;;16.10;78.00;;;;;;5029139;28;20053;-69
2021/09/28 11:38:37;;;;;;;2.67;2.30;;;16.10;78.10;;;;;;5030206;28;20053;-69
2021/09/28 11:41:11;;;;;;;2.00;1.85;;;16.10;76.80;;;;;;5029639;28;20068;-69
2021/09/28 11:43:39;;;;;;;2.17;1.98;;;16.20;77.70;;;;;;5025489;28;20096;-69
2021/09/28 11:46:09;;;;;;;2.70;2.33;;;16.20;74.90;;;;;;5032323;28;20033;-69
2021/09/28 11:48:42;;;;;;;3.50;2.20;;;16.10;76.40;;;;;;5037408;28;20287;-69
2021/09/28 11:51:17;;;;;;;4.03;2.30;;;16.10;76.60;;;;;;5052038;28;20022;-70
2021/09/28 11:53:44;;;;;;;3.65;1.90;;;16.10;76.00;;;;;;5038858;28;20029;-69
2021/09/28 11:56:12;;;;;;;2.00;1.90;;;16.10;77.00;;;;;;5032038;28;20083;-70
2021/09/28 11:58:39;;;;;;;4.28;1.98;;;16.30;76.10;;;;;;5031012;28;20516;-69
2021/09/28 12:01:09;;;;;;;2.10;1.90;;;16.30;74.70;;;;;;5028657;28;20033;-69
2021/09/28 12:03:41;;;;;;;2.10;1.90;;;16.20;74.80;;;;;;5041302;28;20290;-70
2021/09/28 12:06:26;;;;;;;2.95;1.80;;;16.30;76.70;;;;;;5030065;28;20034;-69
2021/09/28 12:08:52;;;;;;;2.38;2.00;;;16.40;75.90;;;;;;5029988;28;20556;-69
2021/09/28 12:11:17;;;;;;;2.40;2.20;;;16.50;75.90;;;;;;5031971;28;20030;-70
2021/09/28 12:13:48;;;;;;;3.92;2.67;;;16.70;77.60;;;;;;5030083;28;20034;-70
2021/09/28 12:16:18;;;;;;;3.47;2.70;;;16.80;77.50;;;;;;5030911;28;20402;-69
2021/09/28 12:18:44;;;;;;;4.13;2.60;;;16.80;77.60;;;;;;5029209;28;20025;-70
2021/09/28 12:21:18;;;;;;;3.80;2.80;;;16.70;75.00;;;;;;5030822;28;20036;-69
2021/09/28 12:23:45;;;;;;;3.22;2.15;;;16.60;75.40;;;;;;5036806;28;20040;-70
2021/09/28 12:26:29;;;;;;;5.07;2.55;;;16.50;76.80;;;;;;5037064;28;20028;-70
2021/09/28 12:28:55;;;;;;;2.97;2.38;;;16.50;76.60;;;;;;5031434;28;20061;-70
2021/09/28 12:31:36;;;;;;;4.65;3.10;;;16.60;79.60;;;;;;5036004;28;20022;-70
2021/09/28 12:34:03;;;;;;;5.20;3.28;;;16.60;77.10;;;;;;5029647;28;20777;-69
2021/09/28 12:36:28;;;;;;;5.55;2.75;;;16.50;74.90;;;;;;5027687;28;20425;-69
2021/09/28 12:39:33;;;;;;;4.20;2.88;;;16.40;73.20;;;;;;5028242;28;20033;-70
2021/09/28 12:42:21;;;;;;;2.67;2.47;;;16.40;74.70;;;;;;4989422;28;20042;-70
2021/09/28 12:44:58;;;;;;;6.38;3.03;;;16.40;76.00;;;;;;4995627;28;20038;-70
2021/09/28 12:47:28;;;;;;;4.03;3.63;;;16.40;78.10;;;;;;5018192;28;20367;-69
2021/09/28 12:49:53;;;;;;;5.90;4.20;;;16.40;79.90;;;;;;5030241;28;20329;-69
2021/09/28 12:52:19;;;;;;;5.60;3.85;;;16.40;77.70;;;;;;5031578;28;20421;-70